ESNS

Skellefteå Airport

Skellefteå, Sweden
METAR ESNS 170550Z AUTO 21005KT 9999 NCD M13/M15 Q1004
Observed Flight Rules
Dec-17 @ 05:50 UTC (32 minutes ago) Visual Flight Rules
Wind Visibility Clouds
210° at 5 knots 10,000+ meters
  • Clear skies
Temperatures Readings
Current -13°C / 9°F
Dewpoint -15°C / 5°F
Humidity 85%
Altimeter 29.65" Hg
Pressure 1004 hPa
Elevation 49
METAR ESNS 170550Z AUTO 21005KT 9999 NCD M13/M15 Q1004
Observed Flight Rules
Dec-17 @ 05:50 UTC
(32 minutes ago)
VFR
Wind Visibility
210° at 5 knots 10,000+ meters
Clouds
  • Clear skies
Temperature Dewpoint
-13°C / 9°F -15°C / 5°F
Humidity Altimeter Pressure
85% 29.65" Hg 1004 hPa